Time;durP1;ratioP1;P1;durP2;ratioP2;P2;SDS_P1;SDS_P2;PMS_P1;PMS_P2;Temp;Humidity;BMP_temperature;BMP_pressure;BME280_temperature;BME280_humidity;BME280_pressure;Samples;Min_cycle;Max_cycle;Signal;HPM_P1;HPM_P2
2022/07/15 00:01:34;;;;;;;5.00;3.00;;;;;;;22.63;53.11;93451.53;5038101;28;20040;-90
2022/07/15 00:04:00;;;;;;;5.25;3.03;;;;;;;22.62;53.18;93455.56;5053310;28;20036;-95
2022/07/15 00:06:25;;;;;;;3.33;2.75;;;;;;;22.61;53.37;93462.34;5036536;28;20032;-93
2022/07/15 00:08:51;;;;;;;3.38;2.67;;;;;;;22.63;53.24;93461.81;5036646;28;20626;-96
2022/07/15 00:11:16;;;;;;;3.83;2.70;;;;;;;22.61;53.30;93465.09;5020048;28;20112;-91
2022/07/15 00:13:42;;;;;;;3.28;2.90;;;;;;;22.61;53.13;93450.59;5052451;28;20040;-89
2022/07/15 00:16:07;;;;;;;5.00;2.80;;;;;;;22.60;52.99;93460.88;5018791;28;20048;-91
2022/07/15 00:18:32;;;;;;;3.83;2.83;;;;;;;22.61;52.96;93456.84;5032225;28;20103;-91
2022/07/15 00:20:58;;;;;;;4.28;3.08;;;;;;;22.62;53.19;93463.09;5032620;28;20033;-93
2022/07/15 00:23:23;;;;;;;5.30;3.10;;;;;;;22.60;52.90;93471.88;5031831;28;20067;-94
2022/07/15 00:25:49;;;;;;;3.17;2.88;;;;;;;22.56;53.10;93483.25;4999162;28;20040;-89
2022/07/15 00:28:14;;;;;;;7.53;2.47;;;;;;;22.56;53.00;93494.25;5015872;28;20041;-95
2022/07/15 00:30:40;;;;;;;3.35;2.70;;;;;;;22.58;52.69;93526.78;5009327;28;20041;-92
2022/07/15 00:33:06;;;;;;;4.00;2.83;;;;;;;22.57;52.71;93536.34;5019687;28;20025;-95
2022/07/15 00:35:32;;;;;;;3.42;3.13;;;;;;;22.56;52.61;93507.28;5023795;28;20037;-94
2022/07/15 00:37:59;;;;;;;5.18;3.40;;;;;;;22.53;52.65;93506.34;5037155;28;20033;-95
2022/07/15 00:40:25;;;;;;;3.83;3.13;;;;;;;22.53;52.54;93495.34;5020614;28;20030;-92
2022/07/15 00:42:51;;;;;;;4.38;3.35;;;;;;;22.54;52.71;93488.53;5081157;23;20048;-89
2022/07/15 00:45:18;;;;;;;4.57;3.38;;;;;;;22.53;52.69;93469.78;5065084;23;20037;-94
2022/07/15 00:47:45;;;;;;;5.75;3.47;;;;;;;22.50;52.64;93455.09;5064949;28;20037;-89
2022/07/15 00:50:11;;;;;;;5.13;3.17;;;;;;;22.53;52.87;93456.75;5078820;28;20083;-94
2022/07/15 00:52:39;;;;;;;5.35;3.13;;;;;;;22.51;52.62;93469.63;5075198;28;20056;-91
2022/07/15 00:55:08;;;;;;;5.00;3.30;;;;;;;22.48;52.85;93474.19;5020782;28;20569;-92
2022/07/15 00:57:35;;;;;;;5.80;4.22;;;;;;;22.49;52.79;93475.66;5067726;28;20048;-95
2022/07/15 01:00:01;;;;;;;5.95;3.80;;;;;;;22.50;52.80;93520.47;5066816;28;20087;-95
2022/07/15 01:02:27;;;;;;;8.45;3.90;;;;;;;22.49;52.90;93572.09;5015065;28;20033;-89
2022/07/15 01:04:52;;;;;;;4.95;3.47;;;;;;;22.51;52.72;93580.56;5048474;28;20123;-95
2022/07/15 01:07:18;;;;;;;5.15;3.90;;;;;;;22.52;52.63;93545.47;5064918;28;20041;-95
2022/07/15 01:09:43;;;;;;;5.70;3.65;;;;;;;22.50;52.63;93521.22;5048253;28;20044;-95
2022/07/15 01:12:08;;;;;;;4.20;3.70;;;;;;;22.51;52.86;93511.69;5048590;28;20041;-90
2022/07/15 01:14:34;;;;;;;4.95;3.47;;;;;;;22.50;52.74;93501.94;5048342;28;20292;-95
2022/07/15 01:16:59;;;;;;;4.65;3.72;;;;;;;22.50;52.66;93515.72;5065442;28;20033;-95
2022/07/15 01:19:25;;;;;;;4.68;3.20;;;;;;;22.49;52.83;93549.31;5014951;28;20039;-95
2022/07/15 01:21:50;;;;;;;5.25;3.80;;;;;;;22.51;53.04;93605.34;5032083;28;20037;-92
2022/07/15 01:24:17;;;;;;;4.53;3.50;;;;;;;22.51;52.81;93616.38;5030655;28;20094;-93
2022/07/15 01:26:42;;;;;;;4.25;3.63;;;;;;;22.50;52.61;93570.81;5032003;28;20095;-93
2022/07/15 01:29:08;;;;;;;4.60;3.78;;;;;;;22.48;53.03;93551.31;5014213;28;20049;-93
2022/07/15 01:31:33;;;;;;;4.78;3.85;;;;;;;22.49;52.95;93541.03;5048518;28;20041;-91
2022/07/15 01:33:58;;;;;;;4.75;3.78;;;;;;;22.48;53.01;93554.06;5014347;28;20040;-95
2022/07/15 01:36:24;;;;;;;6.10;4.20;;;;;;;22.48;53.19;93564.34;5030391;28;20041;-89
2022/07/15 01:38:49;;;;;;;4.18;3.65;;;;;;;22.48;53.23;93553.34;5014544;28;20048;-92
2022/07/15 01:41:16;;;;;;;5.90;4.47;;;;;;;22.44;53.15;93558.44;5047078;28;20037;-94
2022/07/15 01:43:41;;;;;;;4.45;3.67;;;;;;;22.44;53.24;93561.91;5014412;28;20037;-94
2022/07/15 01:46:06;;;;;;;3.67;3.38;;;;;;;22.45;53.42;93568.91;5030655;28;20052;-92
2022/07/15 01:51:16;;;;;;;4.72;4.07;;;;;;;22.46;53.33;93567.63;5046907;28;20067;-91
2022/07/15 01:53:41;;;;;;;5.65;4.45;;;;;;;22.44;53.29;93566.69;5031190;28;20041;-95
2022/07/15 01:56:07;;;;;;;4.68;3.85;;;;;;;22.42;53.41;93550.69;5030694;28;20025;-95
2022/07/15 01:58:32;;;;;;;4.53;4.00;;;;;;;22.41;53.42;93549.22;5030736;28;20087;-91
2022/07/15 02:00:58;;;;;;;5.20;3.80;;;;;;;22.40;53.63;93544.22;5014157;28;20028;-95
2022/07/15 02:03:23;;;;;;;5.53;4.45;;;;;;;22.42;53.62;93536.19;5013719;28;20492;-91
2022/07/15 02:05:49;;;;;;;5.13;4.05;;;;;;;22.41;53.88;93542.97;5030172;28;20030;-91
2022/07/15 02:08:14;;;;;;;5.03;4.13;;;;;;;22.42;53.54;93541.69;5029919;28;20029;-93
2022/07/15 02:10:40;;;;;;;4.45;3.75;;;;;;;22.43;53.66;93552.16;5047516;28;20032;-95
2022/07/15 02:13:09;;;;;;;4.70;3.92;;;;;;;22.39;53.63;93556.53;5029718;28;20041;-89
2022/07/15 02:15:34;;;;;;;6.22;4.60;;;;;;;22.41;53.70;93559.50;5030697;28;20040;-94
2022/07/15 02:18:00;;;;;;;6.45;4.32;;;;;;;22.42;53.68;93574.75;5030648;28;20033;-94
2022/07/15 02:20:26;;;;;;;5.70;3.85;;;;;;;22.38;53.64;93569.56;5029965;28;20075;-91
2022/07/15 02:22:51;;;;;;;6.10;4.13;;;;;;;22.38;53.45;93577.06;5032234;28;20482;-93
2022/07/15 02:25:16;;;;;;;4.43;3.90;;;;;;;22.40;53.37;93564.25;5033396;28;20503;-91
2022/07/15 02:27:42;;;;;;;4.82;4.32;;;;;;;22.39;53.21;93559.28;5033769;28;20510;-93
2022/07/15 02:30:08;;;;;;;4.72;4.22;;;;;;;22.36;53.60;93555.56;5016950;28;20033;-94
2022/07/15 02:32:33;;;;;;;4.25;3.80;;;;;;;22.39;53.31;93565.53;5034039;28;20059;-88
2022/07/15 02:34:59;;;;;;;5.85;3.97;;;;;;;22.36;53.23;93568.59;5034244;28;20480;-93
2022/07/15 02:37:24;;;;;;;5.38;4.35;;;;;;;22.37;53.29;93572.84;5016423;28;20570;-92
2022/07/15 02:39:49;;;;;;;5.85;4.57;;;;;;;22.35;53.39;93575.38;5016749;28;20166;-95
2022/07/15 02:42:15;;;;;;;6.30;4.20;;;;;;;22.35;53.41;93578.88;5066146;28;20037;-94
2022/07/15 02:44:40;;;;;;;6.78;4.20;;;;;;;22.33;53.62;93594.44;5066718;28;20037;-93
2022/07/15 02:47:06;;;;;;;5.25;4.60;;;;;;;22.34;53.42;93604.94;5066157;28;20033;-89
2022/07/15 02:49:32;;;;;;;5.68;4.20;;;;;;;22.31;53.31;93597.00;5039822;28;20373;-96
2022/07/15 02:51:57;;;;;;;4.82;4.13;;;;;;;22.33;53.69;93594.44;4997420;28;20040;-93
2022/07/15 02:54:23;;;;;;;6.50;4.35;;;;;;;22.32;53.62;93601.22;5029633;28;20049;-93
2022/07/15 02:56:48;;;;;;;4.88;4.38;;;;;;;22.31;53.62;93616.28;5013114;28;20033;-95
2022/07/15 02:59:14;;;;;;;4.75;4.15;;;;;;;22.30;53.81;93606.56;5013100;28;20037;-94
2022/07/15 03:01:39;;;;;;;5.90;4.47;;;;;;;22.27;53.86;93607.63;5030335;28;20037;-92
2022/07/15 03:04:04;;;;;;;6.82;4.18;;;;;;;22.28;53.82;93618.09;5013569;28;20068;-89
2022/07/15 03:06:30;;;;;;;5.80;3.90;;;;;;;22.28;53.63;93609.09;4996554;28;20512;-93
2022/07/15 03:08:55;;;;;;;6.38;4.25;;;;;;;22.27;54.05;93604.88;5030023;28;20091;-93
2022/07/15 03:11:21;;;;;;;5.70;4.75;;;;;;;22.26;53.87;93617.88;5006745;28;20423;-95
2022/07/15 03:13:46;;;;;;;5.05;4.05;;;;;;;22.25;53.92;93626.69;5049539;28;20048;-91
2022/07/15 03:16:12;;;;;;;5.85;3.75;;;;;;;22.27;53.76;93630.38;5065395;28;20528;-93
2022/07/15 03:18:37;;;;;;;5.15;4.30;;;;;;;22.20;53.78;93631.75;5066595;28;20460;-93
2022/07/15 03:21:03;;;;;;;4.70;3.90;;;;;;;22.23;53.65;93635.47;5033136;28;20519;-92
2022/07/15 03:23:28;;;;;;;5.05;4.35;;;;;;;22.25;53.67;93643.94;5032017;28;20045;-94
2022/07/15 03:25:54;;;;;;;5.03;4.55;;;;;;;22.19;53.27;93646.06;5032613;28;20045;-94
2022/07/15 03:28:20;;;;;;;4.90;3.65;;;;;;;22.20;52.77;93637.28;5032011;28;20037;-91
2022/07/15 03:30:45;;;;;;;4.13;3.60;;;;;;;22.20;52.51;93640.03;5016301;28;20033;-91
2022/07/15 03:33:11;;;;;;;4.05;3.65;;;;;;;22.21;52.24;93622.22;5031884;28;20037;-93
2022/07/15 03:35:36;;;;;;;3.97;3.20;;;;;;;22.19;51.71;93635.03;5032755;28;20048;-93
2022/07/15 03:38:02;;;;;;;4.03;3.45;;;;;;;22.15;51.04;93629.09;5031917;28;20102;-94
2022/07/15 03:40:27;;;;;;;2.83;2.58;;;;;;;22.20;51.00;93636.53;5065707;28;20037;-94
2022/07/15 03:42:53;;;;;;;4.28;2.85;;;;;;;22.17;50.89;93630.06;5065117;28;20067;-96
2022/07/15 03:45:18;;;;;;;3.78;3.13;;;;;;;22.19;50.69;93629.53;5015687;28;20288;-89
2022/07/15 03:47:43;;;;;;;3.95;2.70;;;;;;;22.15;50.35;93629.09;5032628;28;20040;-91
2022/07/15 03:50:09;;;;;;;3.00;2.58;;;;;;;22.15;50.42;93632.59;5032129;28;20041;-93
2022/07/15 03:52:34;;;;;;;4.47;3.08;;;;;;;22.14;50.10;93633.13;5032193;28;20033;-95
2022/07/15 03:55:00;;;;;;;3.88;3.17;;;;;;;22.14;50.17;93635.88;5032190;28;20029;-95
2022/07/15 03:57:26;;;;;;;4.47;3.10;;;;;;;22.15;50.03;93637.38;5031801;28;20095;-91
2022/07/15 03:59:52;;;;;;;3.60;3.17;;;;;;;22.18;49.76;93634.31;5016007;28;20029;-94
2022/07/15 04:02:17;;;;;;;4.32;2.90;;;;;;;22.18;49.41;93641.81;5015105;28;20037;-95
2022/07/15 04:04:42;;;;;;;3.67;2.90;;;;;;;22.15;49.29;93643.63;5031873;28;20033;-94
2022/07/15 04:07:08;;;;;;;3.70;2.60;;;;;;;22.15;49.21;93638.13;5015219;28;20025;-95
2022/07/15 04:09:33;;;;;;;2.95;2.60;;;;;;;22.13;49.22;93648.16;5015446;28;20037;-95
2022/07/15 04:12:00;;;;;;;5.45;2.63;;;;;;;22.13;49.16;93648.91;5032040;28;20032;-95
2022/07/15 04:14:26;;;;;;;3.55;2.20;;;;;;;22.09;49.15;93645.72;5031036;28;20029;-88
2022/07/15 04:16:51;;;;;;;3.45;2.67;;;;;;;22.10;49.35;93655.47;5014979;28;20044;-94
2022/07/15 04:19:17;;;;;;;3.55;2.55;;;;;;;22.11;49.36;93651.44;5047691;28;20032;-94
2022/07/15 04:21:43;;;;;;;2.97;2.70;;;;;;;22.09;49.58;93642.97;5032140;28;20466;-93
2022/07/15 04:24:08;;;;;;;4.18;2.70;;;;;;;22.10;49.49;93643.72;5030777;28;20044;-94
2022/07/15 04:26:33;;;;;;;4.63;2.85;;;;;;;22.11;49.51;93642.44;5032130;28;20040;-95
2022/07/15 04:28:59;;;;;;;5.68;2.38;;;;;;;22.10;49.40;93638.97;5031291;28;20041;-88
2022/07/15 04:31:24;;;;;;;4.55;2.20;;;;;;;22.05;49.33;93647.34;5030650;28;20040;-95
2022/07/15 04:33:50;;;;;;;3.10;2.53;;;;;;;22.12;49.25;93654.94;5032027;28;20033;-95
2022/07/15 04:36:15;;;;;;;2.85;2.50;;;;;;;22.12;49.38;93647.44;5031358;28;20037;-93
2022/07/15 04:38:41;;;;;;;3.55;2.60;;;;;;;22.11;49.58;93647.97;5031128;28;20041;-95
2022/07/15 04:41:06;;;;;;;6.30;2.75;;;;;;;22.05;49.71;93647.34;5014627;28;20249;-88
2022/07/15 04:43:31;;;;;;;3.22;2.42;;;;;;;22.05;49.77;93648.09;5031606;28;20037;-94
2022/07/15 04:45:57;;;;;;;10.38;3.17;;;;;;;22.05;49.90;93647.34;5030920;28;20044;-91
2022/07/15 04:51:06;;;;;;;7.35;2.53;;;;;;;22.11;49.64;93645.94;5047806;28;20507;-88
2022/07/15 04:53:31;;;;;;;11.70;2.85;;;;;;;22.06;50.04;93660.56;5031072;28;20679;-95
2022/07/15 04:55:57;;;;;;;4.43;2.72;;;;;;;22.03;50.27;93660.88;5049529;28;20515;-95
2022/07/15 04:58:22;;;;;;;6.18;2.70;;;;;;;22.05;50.32;93655.59;5046655;28;20067;-89
2022/07/15 05:00:49;;;;;;;12.23;3.30;;;;;;;22.11;50.64;93667.22;5031959;28;20546;-93
2022/07/15 05:03:14;;;;;;;3.33;2.60;;;;;;;22.12;50.60;93666.69;5016780;28;20037;-92
2022/07/15 05:05:40;;;;;;;4.28;2.30;;;;;;;22.13;50.64;93662.69;5035362;28;20095;-91
2022/07/15 05:08:06;;;;;;;4.32;2.90;;;;;;;22.20;50.16;93664.06;5031752;28;20033;-92
2022/07/15 05:10:31;;;;;;;4.10;2.80;;;;;;;22.23;50.26;93660.25;5014870;28;20036;-91
2022/07/15 05:12:58;;;;;;;3.03;2.33;;;;;;;22.26;50.22;93667.47;5031367;28;20025;-94
2022/07/15 05:15:25;;;;;;;3.45;2.60;;;;;;;22.29;50.30;93666.41;5048797;28;20049;-90
2022/07/15 05:17:50;;;;;;;5.07;2.95;;;;;;;22.29;50.45;93657.41;5031655;28;20055;-89
2022/07/15 05:20:16;;;;;;;7.00;3.42;;;;;;;22.30;50.47;93662.34;5031250;28;20037;-95
2022/07/15 05:22:41;;;;;;;8.02;3.08;;;;;;;22.36;50.14;93662.25;5017172;28;20033;-94
2022/07/15 05:25:09;;;;;;;8.73;3.25;;;;;;;22.33;50.29;93663.31;5033236;28;20029;-91
2022/07/15 05:27:34;;;;;;;8.65;3.88;;;;;;;22.34;50.33;93668.28;5034573;28;20037;-93
2022/07/15 05:30:00;;;;;;;7.88;3.50;;;;;;;22.37;50.09;93664.47;5017196;28;20067;-94
2022/07/15 05:32:26;;;;;;;10.32;3.63;;;;;;;22.36;50.15;93671.25;5033465;28;20041;-93
2022/07/15 05:34:51;;;;;;;6.70;3.10;;;;;;;22.36;50.18;93668.50;5034071;28;20025;-94
2022/07/15 05:37:16;;;;;;;7.15;2.88;;;;;;;22.36;50.26;93676.03;5050232;28;20401;-92
2022/07/15 05:39:53;;;;;;;6.47;3.33;;;;;;;22.39;49.89;93683.22;5050876;28;20052;-91
2022/07/15 05:42:20;;;;;;;5.10;2.97;;;;;;;22.41;50.09;93681.44;5020185;28;20041;-94
2022/07/15 05:44:45;;;;;;;4.35;2.70;;;;;;;22.41;50.05;93681.44;5015599;28;20068;-90
2022/07/15 05:47:11;;;;;;;6.70;2.60;;;;;;;22.47;50.18;93684.09;5015137;28;20041;-94
2022/07/15 05:49:36;;;;;;;4.00;2.38;;;;;;;22.48;49.96;93682.81;5031937;28;20622;-93
2022/07/15 05:52:01;;;;;;;4.43;2.58;;;;;;;22.48;50.08;93674.53;5048440;28;20033;-88
2022/07/15 05:54:27;;;;;;;6.57;2.78;;;;;;;22.50;49.91;93681.00;5014809;28;20033;-92
2022/07/15 05:56:52;;;;;;;3.70;2.83;;;;;;;22.52;49.88;93683.94;5033307;28;20052;-94
2022/07/15 05:59:18;;;;;;;5.20;2.83;;;;;;;22.53;49.65;93687.44;5019662;28;20825;-95
2022/07/15 06:01:43;;;;;;;4.97;2.58;;;;;;;22.55;49.78;93696.66;5019340;28;20404;-94
2022/07/15 06:04:09;;;;;;;81.95;72.93;;;;;;;22.57;50.51;93699.63;5035756;28;20455;-88
2022/07/15 06:06:34;;;;;;;11.15;7.20;;;;;;;22.58;49.78;93689.34;5017781;28;20056;-91
2022/07/15 06:09:00;;;;;;;16.48;14.57;;;;;;;22.60;49.82;93692.31;5016660;28;20033;-93
2022/07/15 06:11:25;;;;;;;8.35;5.20;;;;;;;22.65;49.68;93710.78;5017326;28;20037;-89
2022/07/15 06:13:51;;;;;;;3.75;2.70;;;;;;;22.63;49.59;93709.81;5033753;28;20029;-94
2022/07/15 06:16:17;;;;;;;5.10;2.95;;;;;;;22.64;49.52;93705.78;5034481;28;20056;-93
2022/07/15 06:18:42;;;;;;;4.80;2.90;;;;;;;22.66;49.76;93708.75;5051371;28;20067;-90
2022/07/15 06:21:08;;;;;;;4.45;2.70;;;;;;;22.64;49.67;93708.53;5051837;28;20033;-94
2022/07/15 06:23:33;;;;;;;5.53;3.70;;;;;;;22.64;49.71;93711.28;5051587;28;20037;-91
2022/07/15 06:25:59;;;;;;;4.10;2.78;;;;;;;22.62;49.72;93717.34;5036486;28;20369;-93
2022/07/15 06:28:24;;;;;;;6.35;3.30;;;;;;;22.63;49.67;93718.09;5018665;28;20061;-94
2022/07/15 06:30:50;;;;;;;4.03;3.22;;;;;;;22.65;49.39;93716.28;5036511;28;20033;-94
2022/07/15 06:33:15;;;;;;;4.03;3.15;;;;;;;22.62;49.96;93711.09;5035119;28;20041;-90
2022/07/15 06:35:41;;;;;;;3.25;2.33;;;;;;;22.63;49.74;93712.56;5037280;28;20033;-93
2022/07/15 06:38:06;;;;;;;3.65;2.67;;;;;;;22.62;49.72;93717.34;5038754;28;20036;-93
2022/07/15 06:40:31;;;;;;;3.90;2.35;;;;;;;22.64;49.78;93716.81;5031203;28;20075;-92
2022/07/15 06:42:57;;;;;;;4.60;2.50;;;;;;;22.66;49.56;93728.78;5036385;28;20142;-91
2022/07/15 06:45:23;;;;;;;4.50;2.70;;;;;;;22.66;49.65;93736.31;5034458;28;20530;-94
2022/07/15 06:47:48;;;;;;;5.97;2.45;;;;;;;22.65;49.70;93726.56;5053632;28;20036;-90
2022/07/15 06:50:13;;;;;;;4.07;2.22;;;;;;;22.68;49.74;93731.75;5044227;28;20029;-88
2022/07/15 06:52:39;;;;;;;3.45;2.08;;;;;;;22.68;49.82;93726.25;5044102;28;20037;-91
2022/07/15 06:55:05;;;;;;;4.72;2.28;;;;;;;22.68;49.74;93723.50;5051389;28;20041;-91
2022/07/15 06:57:31;;;;;;;10.95;2.80;;;;;;;22.66;49.71;93728.78;5035917;28;20090;-95
2022/07/15 06:59:57;;;;;;;6.05;2.20;;;;;;;22.70;51.44;93733.97;5019742;28;20029;-92
2022/07/15 07:02:23;;;;;;;5.30;2.22;;;;;;;22.68;49.95;93742.03;5051136;28;20106;-95
2022/07/15 07:04:48;;;;;;;4.78;1.90;;;;;;;22.69;49.72;93738.00;5035185;28;20116;-87
2022/07/15 07:07:14;;;;;;;4.45;1.85;;;;;;;22.67;49.78;93741.28;5034967;28;20037;-92
2022/07/15 07:09:39;;;;;;;10.13;2.85;;;;;;;22.66;49.67;93744.56;5033341;28;20037;-93
2022/07/15 07:12:06;;;;;;;10.88;2.22;;;;;;;22.67;49.70;93746.06;5036686;28;20373;-90
2022/07/15 07:14:31;;;;;;;10.63;2.35;;;;;;;22.69;49.44;93732.50;5031283;28;20381;-91
2022/07/15 07:16:57;;;;;;;2.97;1.85;;;;;;;22.66;49.53;93739.81;5053293;28;20034;-92
2022/07/15 07:19:22;;;;;;;11.63;3.22;;;;;;;22.69;48.26;93741.50;5042714;28;20056;-92
2022/07/15 07:21:50;;;;;;;7.57;2.13;;;;;;;22.68;48.47;93744.78;5019986;28;20016;-93
2022/07/15 07:24:15;;;;;;;13.85;2.97;;;;;;;22.68;49.39;93742.03;5021726;28;20041;-90
2022/07/15 07:26:40;;;;;;;15.82;3.90;;;;;;;22.69;48.53;93740.75;5041798;28;20030;-93
2022/07/15 07:29:06;;;;;;;12.80;3.45;;;;;;;22.61;47.16;93751.69;5044291;28;20032;-94
2022/07/15 07:31:31;;;;;;;13.77;3.00;;;;;;;22.56;47.02;93747.75;5044813;28;20096;-94
2022/07/15 07:33:57;;;;;;;10.73;3.13;;;;;;;22.56;47.11;93736.00;5026767;28;20037;-91
2022/07/15 07:36:23;;;;;;;8.07;2.42;;;;;;;22.53;47.79;93740.53;5073786;22;20037;-89
2022/07/15 07:38:49;;;;;;;8.43;2.22;;;;;;;22.60;48.95;93741.94;5078363;28;20057;-94
2022/07/15 07:41:15;;;;;;;6.25;2.47;;;;;;;22.57;48.44;93732.69;5046666;28;20034;-90
2022/07/15 07:43:40;;;;;;;4.55;2.40;;;;;;;22.63;47.67;93737.38;5043849;28;20045;-89
2022/07/15 07:46:06;;;;;;;6.07;2.42;;;;;;;22.64;48.82;93739.59;5092895;22;20029;-91
2022/07/15 07:48:32;;;;;;;11.23;2.38;;;;;;;22.70;48.74;93737.47;5033130;28;20824;-89
2022/07/15 07:50:58;;;;;;;6.68;1.83;;;;;;;22.71;48.24;93738.22;5068732;28;20108;-89
2022/07/15 07:53:23;;;;;;;322.92;42.45;;;;;;;22.76;48.30;93731.84;5069092;23;20029;-88
2022/07/15 07:55:49;;;;;;;214.70;35.28;;;;;;;22.76;48.23;93732.56;5060656;28;20028;-88
2022/07/15 07:58:16;;;;;;;62.60;12.52;;;;;;;22.73;48.43;93741.94;5075788;28;20047;-88
2022/07/15 08:00:45;;;;;;;38.17;8.13;;;;;;;22.78;48.51;93743.09;5068583;22;20033;-89
2022/07/15 08:03:10;;;;;;;53.72;11.73;;;;;;;22.79;48.24;93728.06;5095695;22;20426;-89
2022/07/15 08:05:36;;;;;;;34.25;8.75;;;;;;;22.81;48.44;93739.28;5073288;23;20028;-89
2022/07/15 08:08:12;;;;;;;56.28;14.65;;;;;;;22.79;48.57;93731.53;5029713;23;20041;-91
2022/07/15 08:10:39;;;;;;;37.08;11.98;;;;;;;22.83;48.42;93731.22;5012465;28;20041;-90
2022/07/15 08:13:04;;;;;;;74.18;14.93;;;;;;;22.83;48.49;93729.22;5011706;28;20037;-93
2022/07/15 08:15:30;;;;;;;34.55;13.13;;;;;;;22.86;48.36;93730.16;4995778;28;20400;-92
2022/07/15 08:17:56;;;;;;;39.00;12.95;;;;;;;22.86;48.35;93722.63;4996444;28;20124;-90
2022/07/15 08:20:21;;;;;;;57.60;15.10;;;;;;;22.89;48.49;93721.56;5025839;28;20377;-93
2022/07/15 08:22:47;;;;;;;52.22;15.27;;;;;;;22.85;48.54;93726.66;4995776;28;20068;-93
2022/07/15 08:25:12;;;;;;;36.03;15.10;;;;;;;22.89;48.28;93729.84;4998136;28;20036;-95
2022/07/15 08:27:37;;;;;;;51.25;20.92;;;;;;;22.89;48.31;93724.34;5008768;28;20073;-93
2022/07/15 08:30:13;;;;;;;50.65;24.15;;;;;;;22.88;48.45;93727.63;5026007;22;20030;-94
2022/07/15 08:32:41;;;;;;;75.78;33.35;;;;;;;22.92;48.24;93719.03;5016050;28;20072;-94
2022/07/15 08:35:09;;;;;;;93.97;35.92;;;;;;;22.92;48.33;93714.25;5014907;28;20116;-93
2022/07/15 08:37:36;;;;;;;100.80;34.33;;;;;;;22.94;48.25;93719.97;5002032;28;20092;-93
2022/07/15 08:40:02;;;;;;;75.80;30.50;;;;;;;22.94;48.27;93719.25;5017883;28;20041;-92
2022/07/15 08:42:29;;;;;;;84.10;32.20;;;;;;;22.96;48.34;93714.66;4984850;28;20068;-94
2022/07/15 08:45:00;;;;;;;94.43;33.40;;;;;;;22.96;48.25;93717.41;5010211;28;20461;-90
2022/07/15 08:47:26;;;;;;;81.50;29.75;;;;;;;22.95;48.32;93718.69;5027072;28;20042;-93
2022/07/15 08:49:56;;;;;;;72.82;27.13;;;;;;;22.96;48.33;93714.66;5027780;28;20400;-93
2022/07/15 08:52:21;;;;;;;73.45;26.88;;;;;;;22.97;48.29;93721.66;5024192;28;20080;-96
2022/07/15 08:54:47;;;;;;;88.53;25.98;;;;;;;22.98;48.30;93720.38;4981966;28;20125;-92
2022/07/15 08:57:14;;;;;;;68.15;25.30;;;;;;;23.00;48.20;93720.59;4980780;28;20044;-95
2022/07/15 08:59:39;;;;;;;65.80;24.55;;;;;;;23.00;48.29;93722.59;4993549;28;20500;-94
2022/07/15 09:02:05;;;;;;;63.00;26.63;;;;;;;22.98;48.78;93725.88;5010127;28;20037;-92
2022/07/15 09:04:30;;;;;;;54.53;24.95;;;;;;;22.99;48.43;93729.38;4974520;28;20046;-94
2022/07/15 09:06:55;;;;;;;58.13;24.42;;;;;;;23.01;48.15;93730.34;4994606;28;20488;-93
2022/07/15 09:09:25;;;;;;;55.00;26.73;;;;;;;23.01;48.46;93733.09;4978937;28;20034;-94
2022/07/15 09:11:55;;;;;;;67.78;28.90;;;;;;;22.99;48.32;93721.88;4980317;28;20037;-95
2022/07/15 09:14:21;;;;;;;77.95;32.13;;;;;;;23.01;48.26;93733.09;5004246;28;20065;-94
2022/07/15 09:16:46;;;;;;;127.30;35.50;;;;;;;23.02;48.63;93729.06;4991989;28;20038;-92
2022/07/15 09:19:12;;;;;;;154.15;37.25;;;;;;;23.02;48.21;93731.09;5007511;28;20045;-95
2022/07/15 09:21:37;;;;;;;103.82;32.20;;;;;;;23.02;48.42;93731.81;4978836;28;20063;-94
2022/07/15 09:24:19;;;;;;;93.80;28.45;;;;;;;23.01;48.34;93727.59;4977693;28;20048;-94
2022/07/15 09:26:45;;;;;;;84.07;27.85;;;;;;;23.01;48.39;93732.34;4979180;28;20037;-93
2022/07/15 09:35:01;;;;;;;49.97;22.15;;;;;;;23.00;48.44;93728.84;4959529;28;20066;-93
2022/07/15 09:37:27;;;;;;;51.47;22.35;;;;;;;23.04;48.68;93723.03;4955169;28;20421;-95
2022/07/15 09:39:56;;;;;;;58.67;21.83;;;;;;;23.02;48.55;93725.56;4937410;28;20041;-93
2022/07/15 09:42:21;;;;;;;54.35;20.70;;;;;;;23.04;48.68;93726.53;4919856;28;20533;-93
2022/07/15 09:44:47;;;;;;;40.80;19.75;;;;;;;23.03;48.39;93730.56;4954326;28;20054;-92
2022/07/15 09:47:18;;;;;;;55.50;21.33;;;;;;;23.02;48.52;93728.34;4955161;28;20471;-93
2022/07/15 09:49:44;;;;;;;84.15;24.55;;;;;;;23.04;48.52;93723.75;4956602;28;20042;-93
2022/07/15 09:52:14;;;;;;;117.22;30.42;;;;;;;23.04;48.43;93717.50;4939805;28;20544;-94
2022/07/15 09:54:44;;;;;;;60.88;25.38;;;;;;;23.05;48.32;93716.22;4940252;28;20042;-94
2022/07/15 09:57:11;;;;;;;77.20;28.20;;;;;;;23.05;48.55;93719.72;4922975;28;20049;-92
2022/07/15 09:59:37;;;;;;;72.82;23.83;;;;;;;23.06;48.44;93712.94;4934206;28;20061;-92
2022/07/15 10:02:02;;;;;;;69.22;27.02;;;;;;;23.07;48.54;93710.94;4994691;28;20026;-92
2022/07/15 10:04:28;;;;;;;62.72;22.52;;;;;;;23.09;48.64;93716.66;4988372;28;20104;-93
2022/07/15 10:07:03;;;;;;;61.17;22.17;;;;;;;23.07;48.34;93719.19;4995507;28;20128;-92
2022/07/15 10:09:30;;;;;;;51.03;21.85;;;;;;;23.06;48.46;93714.97;4995525;28;20399;-92
2022/07/15 10:12:16;;;;;;;85.32;30.02;;;;;;;23.06;48.48;93712.19;4983871;28;20038;-93
2022/07/15 10:15:03;;;;;;;71.03;29.17;;;;;;;23.05;48.41;93708.69;5010336;28;20037;-93
2022/07/15 10:17:43;;;;;;;81.07;26.20;;;;;;;23.06;48.75;93712.94;5030535;28;20060;-94
2022/07/15 10:20:18;;;;;;;71.57;25.23;;;;;;;23.10;48.67;93710.59;5014301;28;20080;-93
2022/07/15 10:22:54;;;;;;;78.78;26.52;;;;;;;23.08;48.49;93706.91;5014615;28;20048;-92
2022/07/15 10:25:39;;;;;;;59.83;27.23;;;;;;;23.08;48.49;93704.88;4994323;28;20081;-93
2022/07/15 10:28:15;;;;;;;57.92;23.38;;;;;;;23.08;48.45;93704.88;4994745;28;20469;-94
2022/07/15 10:30:42;;;;;;;64.05;21.60;;;;;;;23.07;48.52;93711.66;5011581;28;20044;-92
2022/07/15 10:33:10;;;;;;;50.42;22.55;;;;;;;23.13;48.37;93708.81;4978341;28;20503;-92
2022/07/15 10:35:50;;;;;;;47.53;23.88;;;;;;;23.07;48.44;93708.16;5015070;28;20091;-91
2022/07/15 10:38:26;;;;;;;58.42;29.00;;;;;;;23.07;48.41;93697.16;4998146;28;20156;-93
2022/07/15 10:40:59;;;;;;;65.38;30.52;;;;;;;23.08;48.28;93709.66;5014457;28;20045;-94
2022/07/15 10:43:49;;;;;;;59.65;32.75;;;;;;;23.09;48.54;93705.63;4995125;28;20444;-93
2022/07/15 10:46:20;;;;;;;;;;;;;;;23.05;48.41;93700.44;5014375;28;20037;-95
2022/07/15 10:48:46;;;;;;;62.63;33.20;;;;;;;23.08;48.41;93696.59;5031214;28;19948;-94
2022/07/15 10:51:11;;;;;;;78.18;33.65;;;;;;;23.10;48.47;93698.84;5010881;28;20038;-93
2022/07/15 10:53:45;;;;;;;104.50;39.13;;;;;;;23.08;48.53;93693.09;4996241;28;20869;-95
2022/07/15 10:56:35;;;;;;;136.93;47.67;;;;;;;23.07;48.53;93692.38;4997581;28;20056;-95
2022/07/15 10:59:19;;;;;;;84.97;36.58;;;;;;;23.08;48.48;93699.38;4998729;28;20060;-93
2022/07/15 11:01:48;;;;;;;97.35;37.28;;;;;;;23.09;48.48;93698.09;5030041;28;20466;-93
2022/07/15 11:04:25;;;;;;;53.60;28.42;;;;;;;23.05;48.50;93694.19;4980979;28;20030;-93
2022/07/15 11:07:06;;;;;;;76.22;42.00;;;;;;;23.06;48.36;93684.63;5009578;28;20030;-93
2022/07/15 11:09:53;;;;;;;77.70;38.97;;;;;;;23.05;48.36;93681.13;5013041;28;20089;-93
2022/07/15 11:12:30;;;;;;;59.35;29.45;;;;;;;23.07;48.09;93683.34;5029562;28;20084;-94
2022/07/15 11:18:21;;;;;;;55.88;32.20;;;;;;;23.11;47.79;93675.50;4903193;29;20040;-95
2022/07/15 11:20:49;;;;;;;55.70;32.05;;;;;;;23.12;48.01;93665.94;4883367;29;20047;-96
2022/07/15 11:23:14;;;;;;;52.92;27.13;;;;;;;23.09;47.99;93680.81;4895705;29;20052;-95
2022/07/15 11:25:40;;;;;;;44.03;24.25;;;;;;;23.02;47.60;93664.91;4896237;29;20048;-96
2022/07/15 11:28:17;;;;;;;41.78;22.23;;;;;;;22.99;46.56;93666.72;4880652;29;20088;-95
2022/07/15 11:30:49;;;;;;;32.17;16.55;;;;;;;23.01;46.36;93672.44;4897039;29;20040;-95
2022/07/15 11:33:16;;;;;;;31.65;18.80;;;;;;;23.03;46.34;93667.13;4896407;29;20048;-96
2022/07/15 11:35:48;;;;;;;29.08;15.85;;;;;;;22.99;46.53;93672.22;4897095;29;20036;-95
2022/07/15 11:38:14;;;;;;;22.52;12.77;;;;;;;23.01;46.05;93671.69;4887715;29;20538;-96
2022/07/15 11:46:12;;;;;;;27.02;14.52;;;;;;;22.99;45.86;93657.72;4885014;29;20597;-95